Aviation Digital Data Service (ADDS)

Output produced by METARs form (2138 UTC 03 June 2015)
found at http://aviationweather.gov/adds/metars/
 
KMSS 031735Z 0318/0418 07006KT P6SM SKC 
     FM040000 VRB03KT P6SM FEW100